sensor_id;sensor_type;location;lat;lon;timestamp;pressure;altitude;pressure_sealevel;temperature;humidity
18022;BME280;9136;48.822;7.966;2023-03-15T00:00:32;100075.91;;;2.30;100.00
18022;BME280;9136;48.822;7.966;2023-03-15T00:03:21;100094.06;;;2.29;100.00
18022;BME280;9136;48.822;7.966;2023-03-15T00:06:10;100113.94;;;2.15;100.00
18022;BME280;9136;48.822;7.966;2023-03-15T00:08:58;100091.50;;;1.85;100.00
18022;BME280;9136;48.822;7.966;2023-03-15T00:11:47;100084.56;;;1.67;100.00
18022;BME280;9136;48.822;7.966;2023-03-15T00:14:37;100104.41;;;1.72;100.00
18022;BME280;9136;48.822;7.966;2023-03-15T00:17:25;100134.66;;;1.86;100.00
18022;BME280;9136;48.822;7.966;2023-03-15T00:20:13;100099.22;;;1.62;100.00
18022;BME280;9136;48.822;7.966;2023-03-15T00:23:01;100142.41;;;1.75;100.00
18022;BME280;9136;48.822;7.966;2023-03-15T00:25:50;100144.97;;;1.69;100.00
18022;BME280;9136;48.822;7.966;2023-03-15T00:28:39;100137.19;;;1.57;100.00
18022;BME280;9136;48.822;7.966;2023-03-15T00:31:28;100148.41;;;1.56;100.00
18022;BME280;9136;48.822;7.966;2023-03-15T00:34:16;100132.84;;;1.39;100.00
18022;BME280;9136;48.822;7.966;2023-03-15T00:37:09;100172.56;;;1.59;100.00
18022;BME280;9136;48.822;7.966;2023-03-15T00:39:56;100151.00;;;1.62;100.00
18022;BME280;9136;48.822;7.966;2023-03-15T00:42:44;100157.91;;;1.58;100.00
18022;BME280;9136;48.822;7.966;2023-03-15T00:45:35;100155.28;;;1.52;100.00
18022;BME280;9136;48.822;7.966;2023-03-15T00:48:26;100128.53;;;1.38;100.00
18022;BME280;9136;48.822;7.966;2023-03-15T00:51:16;100151.00;;;1.59;100.00
18022;BME280;9136;48.822;7.966;2023-03-15T00:54:04;100156.19;;;1.60;100.00
18022;BME280;9136;48.822;7.966;2023-03-15T00:56:52;100168.28;;;1.69;100.00
18022;BME280;9136;48.822;7.966;2023-03-15T00:59:39;100165.69;;;1.61;100.00
18022;BME280;9136;48.822;7.966;2023-03-15T01:02:27;100144.00;;;1.33;100.00
18022;BME280;9136;48.822;7.966;2023-03-15T01:05:18;100167.31;;;1.35;100.00
18022;BME280;9136;48.822;7.966;2023-03-15T01:08:06;100167.25;;;1.23;100.00
18022;BME280;9136;48.822;7.966;2023-03-15T01:10:54;100145.63;;;0.99;100.00
18022;BME280;9136;48.822;7.966;2023-03-15T01:13:43;100183.59;;;1.12;100.00
18022;BME280;9136;48.822;7.966;2023-03-15T01:16:31;100163.63;;;0.84;100.00
18022;BME280;9136;48.822;7.966;2023-03-15T01:19:18;100154.94;;;0.71;100.00
18022;BME280;9136;48.822;7.966;2023-03-15T01:22:08;100178.22;;;0.70;100.00
18022;BME280;9136;48.822;7.966;2023-03-15T01:24:56;100189.41;;;0.73;100.00
18022;BME280;9136;48.822;7.966;2023-03-15T01:27:43;100196.31;;;0.71;100.00
18022;BME280;9136;48.822;7.966;2023-03-15T01:30:32;100152.28;;;0.61;100.00
18022;BME280;9136;48.822;7.966;2023-03-15T01:33:20;100198.09;;;0.80;100.00
18022;BME280;9136;48.822;7.966;2023-03-15T01:36:10;100166.03;;;0.56;100.00
18022;BME280;9136;48.822;7.966;2023-03-15T01:39:00;100215.28;;;0.76;100.00
18022;BME280;9136;48.822;7.966;2023-03-15T01:41:48;100178.06;;;0.51;100.00
18022;BME280;9136;48.822;7.966;2023-03-15T01:44:49;100215.22;;;0.64;100.00
18022;BME280;9136;48.822;7.966;2023-03-15T01:47:37;100203.94;;;0.54;100.00
18022;BME280;9136;48.822;7.966;2023-03-15T01:50:25;100206.44;;;0.44;100.00
18022;BME280;9136;48.822;7.966;2023-03-15T01:53:13;100222.00;;;0.50;100.00
18022;BME280;9136;48.822;7.966;2023-03-15T01:56:05;100240.97;;;0.53;100.00
18022;BME280;9136;48.822;7.966;2023-03-15T01:58:55;100228.81;;;0.39;100.00
18022;BME280;9136;48.822;7.966;2023-03-15T02:01:43;100239.28;;;0.57;100.00
18022;BME280;9136;48.822;7.966;2023-03-15T02:04:35;100231.41;;;0.42;100.00
18022;BME280;9136;48.822;7.966;2023-03-15T02:07:26;100234.00;;;0.42;100.00
18022;BME280;9136;48.822;7.966;2023-03-15T02:10:24;100242.63;;;0.47;100.00
18022;BME280;9136;48.822;7.966;2023-03-15T02:13:17;100236.53;;;0.37;100.00
18022;BME280;9136;48.822;7.966;2023-03-15T02:16:08;100247.78;;;0.44;100.00
18022;BME280;9136;48.822;7.966;2023-03-15T02:18:55;100246.91;;;0.40;100.00
18022;BME280;9136;48.822;7.966;2023-03-15T02:21:48;100242.59;;;0.39;100.00
18022;BME280;9136;48.822;7.966;2023-03-15T02:24:44;100225.22;;;0.26;100.00
18022;BME280;9136;48.822;7.966;2023-03-15T02:27:37;100230.31;;;0.18;100.00
18022;BME280;9136;48.822;7.966;2023-03-15T02:30:26;100235.47;;;0.14;100.00
18022;BME280;9136;48.822;7.966;2023-03-15T02:33:17;100235.44;;;0.12;100.00
18022;BME280;9136;48.822;7.966;2023-03-15T02:36:09;100257.09;;;0.26;100.00
18022;BME280;9136;48.822;7.966;2023-03-15T02:38:58;100232.88;;;0.14;100.00
18022;BME280;9136;48.822;7.966;2023-03-15T02:41:48;100268.28;;;0.24;100.00
18022;BME280;9136;48.822;7.966;2023-03-15T02:44:42;100264.03;;;0.31;100.00
18022;BME280;9136;48.822;7.966;2023-03-15T02:47:32;100262.25;;;0.26;100.00
18022;BME280;9136;48.822;7.966;2023-03-15T02:50:20;100268.38;;;0.33;100.00
18022;BME280;9136;48.822;7.966;2023-03-15T02:53:08;100275.25;;;0.34;100.00
18022;BME280;9136;48.822;7.966;2023-03-15T02:55:57;100242.44;;;0.22;100.00
18022;BME280;9136;48.822;7.966;2023-03-15T02:58:46;100253.63;;;0.24;100.00
18022;BME280;9136;48.822;7.966;2023-03-15T03:01:35;100245.84;;;0.20;100.00
18022;BME280;9136;48.822;7.966;2023-03-15T03:04:23;100295.94;;;0.34;100.00
18022;BME280;9136;48.822;7.966;2023-03-15T03:07:11;100283.78;;;0.27;100.00
18022;BME280;9136;48.822;7.966;2023-03-15T03:09:59;100280.31;;;0.20;100.00
18022;BME280;9136;48.822;7.966;2023-03-15T03:12:47;100300.13;;;0.21;100.00
18022;BME280;9136;48.822;7.966;2023-03-15T03:15:38;100301.78;;;0.18;100.00
18022;BME280;9136;48.822;7.966;2023-03-15T03:18:28;100293.03;;;0.04;100.00
18022;BME280;9136;48.822;7.966;2023-03-15T03:21:17;100293.91;;;0.07;100.00
18022;BME280;9136;48.822;7.966;2023-03-15T03:24:05;100294.78;;;0.09;100.00
18022;BME280;9136;48.822;7.966;2023-03-15T03:26:53;100306.84;;;0.07;100.00
18022;BME280;9136;48.822;7.966;2023-03-15T03:29:43;100283.50;;;-0.02;100.00
18022;BME280;9136;48.822;7.966;2023-03-15T03:32:31;100279.25;;;0.02;100.00
18022;BME280;9136;48.822;7.966;2023-03-15T03:35:21;100296.50;;;0.09;100.00
18022;BME280;9136;48.822;7.966;2023-03-15T03:38:10;100313.81;;;0.14;100.00
18022;BME280;9136;48.822;7.966;2023-03-15T03:40:58;100308.53;;;0.04;100.00
18022;BME280;9136;48.822;7.966;2023-03-15T03:43:46;100311.19;;;0.10;100.00
18022;BME280;9136;48.822;7.966;2023-03-15T03:46:34;100318.00;;;0.05;100.00
18022;BME280;9136;48.822;7.966;2023-03-15T03:49:21;100306.81;;;0.04;100.00
18022;BME280;9136;48.822;7.966;2023-03-15T03:52:11;100336.22;;;0.17;100.00
18022;BME280;9136;48.822;7.966;2023-03-15T03:54:59;100320.59;;;0.06;100.00
18022;BME280;9136;48.822;7.966;2023-03-15T03:57:47;100294.63;;;-0.08;100.00
18022;BME280;9136;48.822;7.966;2023-03-15T04:00:35;100327.28;;;-0.10;100.00
18022;BME280;9136;48.822;7.966;2023-03-15T04:03:23;100328.97;;;-0.13;100.00
18022;BME280;9136;48.822;7.966;2023-03-15T04:06:16;100332.31;;;-0.22;100.00
18022;BME280;9136;48.822;7.966;2023-03-15T04:09:05;100323.47;;;-0.39;100.00
18022;BME280;9136;48.822;7.966;2023-03-15T04:11:53;100321.72;;;-0.43;100.00
18022;BME280;9136;48.822;7.966;2023-03-15T04:14:41;100358.75;;;-0.40;100.00
18022;BME280;9136;48.822;7.966;2023-03-15T04:17:29;100336.25;;;-0.50;100.00
18022;BME280;9136;48.822;7.966;2023-03-15T04:20:17;100328.22;;;-0.70;100.00
18022;BME280;9136;48.822;7.966;2023-03-15T04:23:05;100332.34;;;-0.82;100.00
18022;BME280;9136;48.822;7.966;2023-03-15T04:25:55;100345.50;;;-0.64;100.00
18022;BME280;9136;48.822;7.966;2023-03-15T04:28:43;100336.03;;;-0.65;100.00
18022;BME280;9136;48.822;7.966;2023-03-15T04:31:31;100371.63;;;-0.43;100.00
18022;BME280;9136;48.822;7.966;2023-03-15T04:34:22;100327.63;;;-0.52;100.00
18022;BME280;9136;48.822;7.966;2023-03-15T04:37:13;100338.19;;;-0.32;100.00
18022;BME280;9136;48.822;7.966;2023-03-15T04:40:01;100357.41;;;-0.12;100.00
18022;BME280;9136;48.822;7.966;2023-03-15T04:42:52;100349.63;;;-0.13;100.00
18022;BME280;9136;48.822;7.966;2023-03-15T04:45:40;100354.00;;;-0.09;100.00
18022;BME280;9136;48.822;7.966;2023-03-15T04:48:28;100340.81;;;-0.31;100.00
18022;BME280;9136;48.822;7.966;2023-03-15T04:51:16;100349.34;;;-0.36;100.00
18022;BME280;9136;48.822;7.966;2023-03-15T04:54:05;100350.97;;;-0.41;100.00
18022;BME280;9136;48.822;7.966;2023-03-15T04:56:53;100342.97;;;-0.60;100.00
18022;BME280;9136;48.822;7.966;2023-03-15T04:59:42;100355.88;;;-0.61;100.00
18022;BME280;9136;48.822;7.966;2023-03-15T05:02:30;100355.78;;;-0.67;100.00
18022;BME280;9136;48.822;7.966;2023-03-15T05:05:18;100346.53;;;-0.51;100.00
18022;BME280;9136;48.822;7.966;2023-03-15T05:08:05;100349.25;;;-0.41;100.00
18022;BME280;9136;48.822;7.966;2023-03-15T05:10:53;100342.22;;;-0.52;100.00
18022;BME280;9136;48.822;7.966;2023-03-15T05:13:41;100358.00;;;-0.31;100.00
18022;BME280;9136;48.822;7.966;2023-03-15T05:16:31;100368.19;;;-0.42;100.00
18022;BME280;9136;48.822;7.966;2023-03-15T05:19:19;100335.25;;;-0.60;100.00
18022;BME280;9136;48.822;7.966;2023-03-15T05:22:07;100358.47;;;-0.58;100.00
18022;BME280;9136;48.822;7.966;2023-03-15T05:24:55;100358.28;;;-0.72;100.00
18022;BME280;9136;48.822;7.966;2023-03-15T05:27:43;100359.06;;;-0.77;100.00
18022;BME280;9136;48.822;7.966;2023-03-15T05:30:32;100374.66;;;-0.68;100.00
18022;BME280;9136;48.822;7.966;2023-03-15T05:33:21;100364.09;;;-0.87;100.00
18022;BME280;9136;48.822;7.966;2023-03-15T05:36:09;100357.66;;;-1.11;100.00
18022;BME280;9136;48.822;7.966;2023-03-15T05:38:59;100382.78;;;-0.98;100.00
18022;BME280;9136;48.822;7.966;2023-03-15T05:41:50;100360.44;;;-0.99;100.00
18022;BME280;9136;48.822;7.966;2023-03-15T05:44:38;100354.34;;;-1.06;100.00
18022;BME280;9136;48.822;7.966;2023-03-15T05:47:26;100347.34;;;-1.11;100.00
18022;BME280;9136;48.822;7.966;2023-03-15T05:50:15;100371.53;;;-1.05;100.00
18022;BME280;9136;48.822;7.966;2023-03-15T05:53:03;100372.47;;;-1.00;100.00
18022;BME280;9136;48.822;7.966;2023-03-15T05:55:51;100355.19;;;-1.05;100.00
18022;BME280;9136;48.822;7.966;2023-03-15T05:58:38;100374.53;;;-0.77;100.00
18022;BME280;9136;48.822;7.966;2023-03-15T06:01:26;100372.13;;;-0.67;100.00
18022;BME280;9136;48.822;7.966;2023-03-15T06:04:14;100352.41;;;-0.62;100.00
18022;BME280;9136;48.822;7.966;2023-03-15T06:07:03;100364.59;;;-0.53;100.00
18022;BME280;9136;48.822;7.966;2023-03-15T06:09:51;100380.34;;;-0.35;100.00
18022;BME280;9136;48.822;7.966;2023-03-15T06:12:39;100406.47;;;-0.10;100.00
18022;BME280;9136;48.822;7.966;2023-03-15T06:15:27;100378.72;;;-0.26;100.00
18022;BME280;9136;48.822;7.966;2023-03-15T06:18:14;100411.75;;;-0.03;100.00
18022;BME280;9136;48.822;7.966;2023-03-15T06:21:06;100390.06;;;-0.15;100.00
18022;BME280;9136;48.822;7.966;2023-03-15T06:23:55;100411.72;;;-0.06;100.00
18022;BME280;9136;48.822;7.966;2023-03-15T06:26:43;100378.03;;;-0.13;100.00
18022;BME280;9136;48.822;7.966;2023-03-15T06:29:32;100379.84;;;-0.08;100.00
18022;BME280;9136;48.822;7.966;2023-03-15T06:32:20;100391.03;;;-0.07;100.00
18022;BME280;9136;48.822;7.966;2023-03-15T06:35:08;100418.00;;;0.15;100.00
18022;BME280;9136;48.822;7.966;2023-03-15T06:37:56;100385.25;;;0.14;100.00
18022;BME280;9136;48.822;7.966;2023-03-15T06:40:45;100396.69;;;0.33;100.00
18022;BME280;9136;48.822;7.966;2023-03-15T06:43:33;100389.81;;;0.36;100.00
18022;BME280;9136;48.822;7.966;2023-03-15T06:46:21;100441.81;;;0.61;100.00
18022;BME280;9136;48.822;7.966;2023-03-15T06:49:10;100423.66;;;0.57;100.00
18022;BME280;9136;48.822;7.966;2023-03-15T06:51:57;100416.13;;;0.77;100.00
18022;BME280;9136;48.822;7.966;2023-03-15T06:54:45;100401.53;;;0.85;100.00
18022;BME280;9136;48.822;7.966;2023-03-15T06:57:34;100412.88;;;0.97;100.00
18022;BME280;9136;48.822;7.966;2023-03-15T07:00:22;100432.81;;;1.11;100.00
18022;BME280;9136;48.822;7.966;2023-03-15T07:03:10;100420.66;;;0.98;100.00
18022;BME280;9136;48.822;7.966;2023-03-15T07:05:58;100430.16;;;1.02;100.00
18022;BME280;9136;48.822;7.966;2023-03-15T07:08:46;100445.00;;;1.25;100.00
18022;BME280;9136;48.822;7.966;2023-03-15T07:11:34;100459.03;;;1.50;100.00
18022;BME280;9136;48.822;7.966;2023-03-15T07:14:23;100436.69;;;1.64;100.00
18022;BME280;9136;48.822;7.966;2023-03-15T07:17:11;100455.78;;;1.78;100.00
18022;BME280;9136;48.822;7.966;2023-03-15T07:19:59;100444.59;;;1.84;100.00
18022;BME280;9136;48.822;7.966;2023-03-15T07:22:47;100440.31;;;1.89;100.00
18022;BME280;9136;48.822;7.966;2023-03-15T07:25:35;100465.50;;;2.19;100.00
18022;BME280;9136;48.822;7.966;2023-03-15T07:28:23;100449.91;;;2.05;100.00
18022;BME280;9136;48.822;7.966;2023-03-15T07:31:13;100443.00;;;2.10;100.00
18022;BME280;9136;48.822;7.966;2023-03-15T07:34:01;100475.94;;;2.23;100.00
18022;BME280;9136;48.822;7.966;2023-03-15T07:36:49;100466.50;;;2.48;100.00
18022;BME280;9136;48.822;7.966;2023-03-15T07:39:37;100471.75;;;2.59;100.00
18022;BME280;9136;48.822;7.966;2023-03-15T07:42:24;100442.28;;;2.33;100.00
18022;BME280;9136;48.822;7.966;2023-03-15T07:45:12;100457.88;;;2.43;100.00
18022;BME280;9136;48.822;7.966;2023-03-15T07:48:02;100456.19;;;2.51;100.00
18022;BME280;9136;48.822;7.966;2023-03-15T07:50:50;100457.91;;;2.57;100.00
18022;BME280;9136;48.822;7.966;2023-03-15T07:53:38;100460.53;;;2.69;100.00
18022;BME280;9136;48.822;7.966;2023-03-15T07:56:26;100475.34;;;3.13;100.00
18022;BME280;9136;48.822;7.966;2023-03-15T07:59:14;100492.66;;;3.12;100.00
18022;BME280;9136;48.822;7.966;2023-03-15T08:02:02;100465.84;;;3.10;100.00
18022;BME280;9136;48.822;7.966;2023-03-15T08:04:51;100450.25;;;2.91;100.00
18022;BME280;9136;48.822;7.966;2023-03-15T08:07:39;100469.31;;;3.20;100.00
18022;BME280;9136;48.822;7.966;2023-03-15T08:10:27;100469.34;;;3.38;100.00
18022;BME280;9136;48.822;7.966;2023-03-15T08:13:14;100494.44;;;3.73;100.00
18022;BME280;9136;48.822;7.966;2023-03-15T08:16:02;100461.50;;;3.84;100.00
18022;BME280;9136;48.822;7.966;2023-03-15T08:18:50;100454.59;;;3.54;100.00
18022;BME280;9136;48.822;7.966;2023-03-15T08:21:39;100480.56;;;3.53;100.00
18022;BME280;9136;48.822;7.966;2023-03-15T08:24:30;100478.84;;;3.49;100.00
18022;BME280;9136;48.822;7.966;2023-03-15T08:27:18;100453.72;;;3.64;100.00
18022;BME280;9136;48.822;7.966;2023-03-15T08:30:07;100452.78;;;4.03;100.00
18022;BME280;9136;48.822;7.966;2023-03-15T08:32:57;100464.00;;;4.24;100.00
18022;BME280;9136;48.822;7.966;2023-03-15T08:35:44;100431.06;;;4.24;100.00
18022;BME280;9136;48.822;7.966;2023-03-15T08:38:34;100459.56;;;4.58;100.00
18022;BME280;9136;48.822;7.966;2023-03-15T08:45:05;100456.88;;;4.70;100.00
18022;BME280;9136;48.822;7.966;2023-03-15T08:47:55;100505.28;;;5.08;100.00
18022;BME280;9136;48.822;7.966;2023-03-15T08:50:43;100466.09;;;5.26;100.00
18022;BME280;9136;48.822;7.966;2023-03-15T08:53:31;100513.66;;;5.54;100.00
18022;BME280;9136;48.822;7.966;2023-03-15T08:56:21;100465.28;;;5.18;100.00
18022;BME280;9136;48.822;7.966;2023-03-15T08:59:09;100481.75;;;5.18;100.00
18022;BME280;9136;48.822;7.966;2023-03-15T09:01:58;100493.03;;;5.25;100.00
18022;BME280;9136;48.822;7.966;2023-03-15T09:04:46;100494.63;;;5.43;100.00
18022;BME280;9136;48.822;7.966;2023-03-15T09:07:34;100508.53;;;5.39;100.00
18022;BME280;9136;48.822;7.966;2023-03-15T09:10:22;100499.81;;;5.46;100.00
18022;BME280;9136;48.822;7.966;2023-03-15T09:13:11;100496.53;;;5.21;100.00
18022;BME280;9136;48.822;7.966;2023-03-15T09:15:59;100472.28;;;5.10;100.00
18022;BME280;9136;48.822;7.966;2023-03-15T09:18:48;100505.75;;;5.63;100.00
18022;BME280;9136;48.822;7.966;2023-03-15T09:21:36;100495.72;;;6.17;95.30
18022;BME280;9136;48.822;7.966;2023-03-15T09:24:24;100505.50;;;6.75;91.95
18022;BME280;9136;48.822;7.966;2023-03-15T09:27:12;100487.09;;;6.84;79.56
18022;BME280;9136;48.822;7.966;2023-03-15T09:30:01;100505.16;;;7.01;78.58
18022;BME280;9136;48.822;7.966;2023-03-15T09:32:49;100494.56;;;7.12;81.71
18022;BME280;9136;48.822;7.966;2023-03-15T09:35:36;100522.81;;;7.47;79.22
18022;BME280;9136;48.822;7.966;2023-03-15T09:38:24;100482.63;;;6.94;58.53
18022;BME280;9136;48.822;7.966;2023-03-15T09:41:18;100496.16;;;7.22;64.48
18022;BME280;9136;48.822;7.966;2023-03-15T09:44:13;100501.13;;;7.40;57.75
18022;BME280;9136;48.822;7.966;2023-03-15T09:47:24;100514.69;;;7.65;55.78
18022;BME280;9136;48.822;7.966;2023-03-15T09:50:18;100498.09;;;7.09;58.78
18022;BME280;9136;48.822;7.966;2023-03-15T09:53:12;100501.94;;;7.45;56.99
18022;BME280;9136;48.822;7.966;2023-03-15T09:56:00;100503.84;;;7.34;57.78
18022;BME280;9136;48.822;7.966;2023-03-15T09:58:51;100535.38;;;7.79;58.93
18022;BME280;9136;48.822;7.966;2023-03-15T10:01:41;100522.72;;;7.52;57.23
18022;BME280;9136;48.822;7.966;2023-03-15T10:04:32;100536.44;;;7.07;55.92
18022;BME280;9136;48.822;7.966;2023-03-15T10:07:25;100504.84;;;6.59;55.81
18022;BME280;9136;48.822;7.966;2023-03-15T10:10:16;100527.16;;;6.86;56.86
18022;BME280;9136;48.822;7.966;2023-03-15T10:13:17;100525.41;;;6.84;56.90
18022;BME280;9136;48.822;7.966;2023-03-15T10:16:19;100502.09;;;6.70;57.86
18022;BME280;9136;48.822;7.966;2023-03-15T10:19:16;100503.25;;;7.14;60.85
18022;BME280;9136;48.822;7.966;2023-03-15T10:22:14;100503.34;;;7.08;57.43
18022;BME280;9136;48.822;7.966;2023-03-15T10:25:13;100520.84;;;7.63;58.10
18022;BME280;9136;48.822;7.966;2023-03-15T10:28:07;100509.97;;;8.37;55.40
18022;BME280;9136;48.822;7.966;2023-03-15T10:30:59;100531.53;;;8.01;53.29
18022;BME280;9136;48.822;7.966;2023-03-15T10:33:48;100517.84;;;7.84;53.59
18022;BME280;9136;48.822;7.966;2023-03-15T10:36:36;100515.28;;;7.83;53.61
18022;BME280;9136;48.822;7.966;2023-03-15T10:39:25;100512.44;;;7.95;54.00
18022;BME280;9136;48.822;7.966;2023-03-15T10:42:25;100529.97;;;8.41;54.41
18022;BME280;9136;48.822;7.966;2023-03-15T10:45:19;100521.16;;;8.45;56.33
18022;BME280;9136;48.822;7.966;2023-03-15T10:48:07;100487.31;;;7.86;53.27
18022;BME280;9136;48.822;7.966;2023-03-15T10:50:56;100511.22;;;8.62;58.49
18022;BME280;9136;48.822;7.966;2023-03-15T10:53:51;100520.34;;;8.84;54.53
18022;BME280;9136;48.822;7.966;2023-03-15T10:56:45;100487.94;;;9.66;49.94
18022;BME280;9136;48.822;7.966;2023-03-15T10:59:34;100479.91;;;10.06;47.13
18022;BME280;9136;48.822;7.966;2023-03-15T11:02:24;100507.72;;;11.06;46.04
18022;BME280;9136;48.822;7.966;2023-03-15T11:05:15;100489.81;;;10.29;46.07
18022;BME280;9136;48.822;7.966;2023-03-15T11:08:10;100496.69;;;8.89;50.44
18022;BME280;9136;48.822;7.966;2023-03-15T11:10:58;100487.47;;;8.25;50.75
18022;BME280;9136;48.822;7.966;2023-03-15T11:13:58;100496.72;;;7.96;52.04
18022;BME280;9136;48.822;7.966;2023-03-15T11:16:48;100504.19;;;8.64;50.37
18022;BME280;9136;48.822;7.966;2023-03-15T11:19:40;100500.72;;;8.64;49.16
18022;BME280;9136;48.822;7.966;2023-03-15T11:22:28;100485.19;;;8.54;50.38
18022;BME280;9136;48.822;7.966;2023-03-15T11:25:17;100480.72;;;8.59;51.32
18022;BME280;9136;48.822;7.966;2023-03-15T11:28:04;100468.56;;;8.55;51.53
18022;BME280;9136;48.822;7.966;2023-03-15T11:30:57;100484.09;;;9.05;50.54
18022;BME280;9136;48.822;7.966;2023-03-15T11:33:51;100505.06;;;9.05;51.27
18022;BME280;9136;48.822;7.966;2023-03-15T11:36:43;100474.84;;;8.90;51.84
18022;BME280;9136;48.822;7.966;2023-03-15T11:39:36;100498.19;;;8.57;53.44
18022;BME280;9136;48.822;7.966;2023-03-15T11:42:34;100492.94;;;8.13;57.67
18022;BME280;9136;48.822;7.966;2023-03-15T11:45:30;100497.38;;;7.57;83.63
18022;BME280;9136;48.822;7.966;2023-03-15T11:48:26;100485.03;;;7.09;96.66
18022;BME280;9136;48.822;7.966;2023-03-15T11:51:16;100500.53;;;6.57;100.00
18022;BME280;9136;48.822;7.966;2023-03-15T11:54:07;100505.13;;;6.34;100.00
18022;BME280;9136;48.822;7.966;2023-03-15T11:57:01;100532.16;;;6.26;100.00
18022;BME280;9136;48.822;7.966;2023-03-15T11:59:50;100541.91;;;6.09;100.00
18022;BME280;9136;48.822;7.966;2023-03-15T12:02:48;100527.41;;;5.73;100.00
18022;BME280;9136;48.822;7.966;2023-03-15T12:05:47;100561.44;;;5.53;100.00
18022;BME280;9136;48.822;7.966;2023-03-15T12:08:41;100538.13;;;5.29;100.00
18022;BME280;9136;48.822;7.966;2023-03-15T12:11:38;100513.94;;;5.13;100.00
18022;BME280;9136;48.822;7.966;2023-03-15T12:14:28;100538.13;;;5.33;100.00
18022;BME280;9136;48.822;7.966;2023-03-15T12:17:37;100553.69;;;5.44;100.00
18022;BME280;9136;48.822;7.966;2023-03-15T12:20:33;100533.66;;;5.52;100.00
18022;BME280;9136;48.822;7.966;2023-03-15T12:23:36;100516.47;;;6.31;100.00
18022;BME280;9136;48.822;7.966;2023-03-15T12:26:30;100507.44;;;9.15;100.00
18022;BME280;9136;48.822;7.966;2023-03-15T12:29:22;100523.03;;;10.30;93.48
18022;BME280;9136;48.822;7.966;2023-03-15T12:32:11;100544.84;;;9.62;95.45
18022;BME280;9136;48.822;7.966;2023-03-15T12:35:07;100530.16;;;9.91;83.63
18022;BME280;9136;48.822;7.966;2023-03-15T12:37:59;100540.97;;;12.44;72.32
18022;BME280;9136;48.822;7.966;2023-03-15T12:40:51;100522.13;;;11.79;63.25
18022;BME280;9136;48.822;7.966;2023-03-15T12:43:41;100494.63;;;10.12;80.24
18022;BME280;9136;48.822;7.966;2023-03-15T12:46:55;100532.50;;;9.67;86.87
18022;BME280;9136;48.822;7.966;2023-03-15T12:49:44;100503.75;;;9.24;80.78
18022;BME280;9136;48.822;7.966;2023-03-15T12:52:40;100518.16;;;11.37;71.57
18022;BME280;9136;48.822;7.966;2023-03-15T12:55:32;100521.41;;;11.45;64.76
18022;BME280;9136;48.822;7.966;2023-03-15T12:58:26;100502.47;;;10.77;67.72
18022;BME280;9136;48.822;7.966;2023-03-15T13:01:16;100502.34;;;10.18;67.24
18022;BME280;9136;48.822;7.966;2023-03-15T13:04:04;100499.03;;;8.61;80.27
18022;BME280;9136;48.822;7.966;2023-03-15T13:07:26;100525.09;;;7.68;97.32
18022;BME280;9136;48.822;7.966;2023-03-15T13:10:37;100524.03;;;6.54;100.00
18022;BME280;9136;48.822;7.966;2023-03-15T13:13:47;100548.44;;;5.52;100.00
18022;BME280;9136;48.822;7.966;2023-03-15T13:16:42;100545.88;;;5.44;100.00
18022;BME280;9136;48.822;7.966;2023-03-15T13:19:36;100535.41;;;5.50;100.00
18022;BME280;9136;48.822;7.966;2023-03-15T13:22:33;100527.53;;;5.56;100.00
18022;BME280;9136;48.822;7.966;2023-03-15T13:25:27;100519.41;;;5.99;100.00
18022;BME280;9136;48.822;7.966;2023-03-15T13:28:21;100519.06;;;6.32;100.00
18022;BME280;9136;48.822;7.966;2023-03-15T13:31:19;100506.97;;;8.09;100.00
18022;BME280;9136;48.822;7.966;2023-03-15T13:34:12;100511.03;;;8.71;100.00
18022;BME280;9136;48.822;7.966;2023-03-15T13:37:01;100512.53;;;7.36;100.00
18022;BME280;9136;48.822;7.966;2023-03-15T13:39:54;100529.16;;;6.63;100.00
18022;BME280;9136;48.822;7.966;2023-03-15T13:42:43;100498.31;;;6.93;100.00
18022;BME280;9136;48.822;7.966;2023-03-15T13:45:31;100478.13;;;7.07;100.00
18022;BME280;9136;48.822;7.966;2023-03-15T13:48:20;100505.56;;;8.40;100.00
18022;BME280;9136;48.822;7.966;2023-03-15T13:51:12;100481.03;;;8.44;100.00
18022;BME280;9136;48.822;7.966;2023-03-15T13:54:06;100505.91;;;8.65;100.00
18022;BME280;9136;48.822;7.966;2023-03-15T13:56:59;100513.09;;;8.08;100.00
18022;BME280;9136;48.822;7.966;2023-03-15T13:59:50;100520.13;;;7.50;100.00
18022;BME280;9136;48.822;7.966;2023-03-15T14:02:44;100523.91;;;7.31;100.00
18022;BME280;9136;48.822;7.966;2023-03-15T14:05:43;100509.91;;;7.36;100.00
18022;BME280;9136;48.822;7.966;2023-03-15T14:08:34;100520.03;;;7.58;100.00
18022;BME280;9136;48.822;7.966;2023-03-15T14:11:34;100519.09;;;7.60;100.00
18022;BME280;9136;48.822;7.966;2023-03-15T14:14:24;100509.75;;;7.47;100.00
18022;BME280;9136;48.822;7.966;2023-03-15T14:17:19;100511.06;;;7.17;100.00
18022;BME280;9136;48.822;7.966;2023-03-15T14:20:15;100520.31;;;7.39;100.00
18022;BME280;9136;48.822;7.966;2023-03-15T14:23:05;100490.41;;;6.99;100.00
18022;BME280;9136;48.822;7.966;2023-03-15T14:26:02;100510.22;;;7.15;100.00
18022;BME280;9136;48.822;7.966;2023-03-15T14:28:55;100511.91;;;7.19;100.00
18022;BME280;9136;48.822;7.966;2023-03-15T14:31:48;100497.44;;;6.94;100.00
18022;BME280;9136;48.822;7.966;2023-03-15T14:34:43;100500.66;;;7.12;100.00
18022;BME280;9136;48.822;7.966;2023-03-15T14:37:36;100512.03;;;7.08;100.00
18022;BME280;9136;48.822;7.966;2023-03-15T14:40:30;100502.13;;;7.30;100.00
18022;BME280;9136;48.822;7.966;2023-03-15T14:43:20;100509.09;;;7.87;100.00
18022;BME280;9136;48.822;7.966;2023-03-15T14:46:08;100512.69;;;8.29;100.00
18022;BME280;9136;48.822;7.966;2023-03-15T14:48:56;100530.59;;;8.53;100.00
18022;BME280;9136;48.822;7.966;2023-03-15T14:51:44;100526.59;;;8.32;100.00
18022;BME280;9136;48.822;7.966;2023-03-15T14:54:32;100533.78;;;8.20;100.00
18022;BME280;9136;48.822;7.966;2023-03-15T14:57:22;100496.41;;;7.64;100.00
18022;BME280;9136;48.822;7.966;2023-03-15T15:00:12;100530.09;;;7.81;100.00
18022;BME280;9136;48.822;7.966;2023-03-15T15:03:02;100530.97;;;7.26;100.00
18022;BME280;9136;48.822;7.966;2023-03-15T15:05:53;100509.28;;;7.19;100.00